createdAt,value
2023-03-06T00:00:47.184Z,99276.64
2023-03-06T00:03:15.619Z,99275.14
2023-03-06T00:05:44.779Z,99274.12
2023-03-06T00:08:12.847Z,99270.73
2023-03-06T00:10:49.645Z,99266.66
2023-03-06T00:13:26.661Z,99262.46
2023-03-06T00:16:00.693Z,99259.17
2023-03-06T00:18:30.372Z,99257.84
2023-03-06T00:21:11.193Z,99255.32
2023-03-06T00:23:41.362Z,99247.39
2023-03-06T00:26:09.967Z,99246.02
2023-03-06T00:28:39.764Z,99243.27
2023-03-06T00:31:15.551Z,99244.58
2023-03-06T00:33:44.144Z,99243.30
2023-03-06T00:36:12.320Z,99240.45
2023-03-06T00:38:41.027Z,99237.21
2023-03-06T00:41:11.228Z,99237.77
2023-03-06T00:43:40.567Z,99230.15
2023-03-06T00:46:09.494Z,99225.80
2023-03-06T00:48:38.204Z,99219.65
2023-03-06T00:51:09.635Z,99220.20
2023-03-06T00:53:38.595Z,99218.83
2023-03-06T00:56:09.178Z,99211.70
2023-03-06T00:58:38.596Z,99210.03
2023-03-06T01:01:06.671Z,99210.40
2023-03-06T01:03:35.797Z,99208.77
2023-03-06T01:06:06.233Z,99205.73
2023-03-06T01:08:37.518Z,99203.36
2023-03-06T01:11:06.658Z,99203.27
2023-03-06T01:13:34.812Z,99199.20
2023-03-06T01:16:12.213Z,99201.09
2023-03-06T01:18:41.265Z,99199.25
2023-03-06T01:21:09.435Z,99195.95
2023-03-06T01:23:39.530Z,99190.30
2023-03-06T01:26:07.935Z,99189.88
2023-03-06T01:28:39.268Z,99186.02
2023-03-06T01:31:08.462Z,99185.36
2023-03-06T01:33:37.921Z,99178.70
2023-03-06T01:36:09.546Z,99177.30
2023-03-06T01:38:37.630Z,99174.29
2023-03-06T01:41:06.678Z,99174.98
2023-03-06T01:43:35.714Z,99174.92
2023-03-06T01:46:22.937Z,99177.61
2023-03-06T01:49:15.554Z,99179.10
2023-03-06T01:52:02.063Z,99180.40
2023-03-06T01:54:46.947Z,99185.27
2023-03-06T01:57:18.602Z,99185.41
2023-03-06T01:59:48.306Z,99181.96
2023-03-06T02:02:16.676Z,99179.95
2023-03-06T02:04:44.711Z,99177.30
2023-03-06T02:07:12.930Z,99177.41
2023-03-06T02:09:44.351Z,99174.54
2023-03-06T02:12:14.612Z,99170.21
2023-03-06T02:14:42.677Z,99169.83
2023-03-06T02:17:11.985Z,99174.95
2023-03-06T02:20:08.353Z,99172.48
2023-03-06T02:22:40.415Z,99171.52
2023-03-06T02:25:30.462Z,99166.82
2023-03-06T02:27:58.630Z,99165.45
2023-03-06T02:30:26.992Z,99163.52
2023-03-06T02:32:55.593Z,99163.36
2023-03-06T02:35:28.842Z,99167.70
2023-03-06T02:38:06.370Z,99167.61
2023-03-06T02:40:36.921Z,99168.57
2023-03-06T02:43:05.022Z,99165.78
2023-03-06T02:45:45.200Z,99168.67
2023-03-06T02:48:13.801Z,99160.35
2023-03-06T02:50:42.237Z,99161.63
2023-03-06T02:53:12.041Z,99162.50
2023-03-06T02:55:40.290Z,99161.40
2023-03-06T02:58:08.503Z,99156.95
2023-03-06T03:00:36.656Z,99156.60
2023-03-06T03:03:05.626Z,99160.58
2023-03-06T03:05:33.903Z,99164.85
2023-03-06T03:08:21.545Z,99165.48
2023-03-06T03:10:55.817Z,99160.33
2023-03-06T03:13:24.943Z,99154.11
2023-03-06T03:16:04.105Z,99152.16
2023-03-06T03:18:34.147Z,99160.19
2023-03-06T03:21:02.643Z,99161.20
2023-03-06T03:23:31.169Z,99156.63
2023-03-06T03:26:10.201Z,99157.45
2023-03-06T03:28:40.309Z,99161.35
2023-03-06T03:31:09.714Z,99162.71
2023-03-06T03:33:38.632Z,99165.79
2023-03-06T03:36:08.288Z,99163.48
2023-03-06T03:38:39.252Z,99157.45
2023-03-06T03:41:10.293Z,99156.55
2023-03-06T03:43:39.634Z,99158.77
2023-03-06T03:46:07.801Z,99153.17
2023-03-06T03:48:37.429Z,99151.57
2023-03-06T03:51:07.727Z,99144.52
2023-03-06T03:53:37.054Z,99150.09
2023-03-06T03:56:05.754Z,99148.95
2023-03-06T03:58:38.933Z,99147.83
2023-03-06T04:01:07.310Z,99149.67
2023-03-06T04:03:36.083Z,99145.83
2023-03-06T04:06:05.871Z,99147.17
2023-03-06T04:08:34.234Z,99147.08
2023-03-06T04:11:03.125Z,99143.16
2023-03-06T04:13:32.318Z,99145.85
2023-03-06T04:16:00.543Z,99146.23
2023-03-06T04:18:30.746Z,99147.27
2023-03-06T04:21:03.603Z,99146.79
2023-03-06T04:23:32.280Z,99143.17
2023-03-06T04:26:00.296Z,99150.27
2023-03-06T04:28:47.067Z,99156.48
2023-03-06T04:31:18.002Z,99155.27
2023-03-06T04:33:46.397Z,99156.97
2023-03-06T04:36:37.715Z,99163.80
2023-03-06T04:39:09.362Z,99163.36
2023-03-06T04:41:39.764Z,99164.36
2023-03-06T04:44:08.370Z,99160.46
2023-03-06T04:46:36.364Z,99161.38
2023-03-06T04:49:05.268Z,99158.83
2023-03-06T04:51:33.625Z,99161.67
2023-03-06T04:54:03.906Z,99164.85
2023-03-06T04:56:31.997Z,99166.86
2023-03-06T04:59:00.364Z,99167.06
2023-03-06T05:01:28.698Z,99168.70
2023-03-06T05:03:56.729Z,99165.20
2023-03-06T05:06:24.858Z,99168.89
2023-03-06T05:08:52.983Z,99173.54
2023-03-06T05:11:21.638Z,99177.77
2023-03-06T05:13:51.612Z,99180.11
2023-03-06T05:16:23.576Z,99174.67
2023-03-06T05:18:51.904Z,99171.36
2023-03-06T05:21:20.346Z,99172.84
2023-03-06T05:23:48.323Z,99174.42
2023-03-06T05:26:16.545Z,99178.51
2023-03-06T05:28:44.757Z,99185.63
2023-03-06T05:31:14.958Z,99183.20
2023-03-06T05:33:44.158Z,99182.82
2023-03-06T05:36:12.763Z,99186.44
2023-03-06T05:38:45.536Z,99191.61
2023-03-06T05:41:14.057Z,99187.84
2023-03-06T05:43:42.144Z,99189.00
2023-03-06T05:46:10.884Z,99192.30
2023-03-06T05:48:38.866Z,99194.00
2023-03-06T05:51:06.849Z,99197.88
2023-03-06T05:53:34.966Z,99203.30
2023-03-06T05:56:11.189Z,99204.50
2023-03-06T05:58:40.318Z,99203.08
2023-03-06T06:01:10.010Z,99207.38
2023-03-06T06:03:38.816Z,99212.30
2023-03-06T06:06:08.399Z,99215.57
2023-03-06T06:08:37.630Z,99217.45
2023-03-06T06:11:08.132Z,99219.15
2023-03-06T06:13:38.435Z,99216.67
2023-03-06T06:16:11.653Z,99213.61
2023-03-06T06:18:41.290Z,99217.17
2023-03-06T06:21:13.530Z,99218.52
2023-03-06T06:23:41.755Z,99217.43
2023-03-06T06:26:10.053Z,99219.62
2023-03-06T06:28:38.704Z,99221.06
2023-03-06T06:31:13.133Z,99220.73
2023-03-06T06:33:43.002Z,99219.98
2023-03-06T06:36:20.406Z,99223.52
2023-03-06T06:38:49.091Z,99227.41
2023-03-06T06:44:08.684Z,99229.80
2023-03-06T06:47:20.692Z,99232.00
2023-03-06T06:49:25.834Z,99233.73
2023-03-06T06:51:54.112Z,99241.89
2023-03-06T06:54:22.630Z,99237.59
2023-03-06T06:56:51.241Z,99240.98
2023-03-06T06:59:19.920Z,99244.48
2023-03-06T07:01:48.215Z,99248.80
2023-03-06T07:04:16.838Z,99251.23
2023-03-06T07:06:47.067Z,99252.80
2023-03-06T07:09:16.292Z,99257.77
2023-03-06T07:11:44.504Z,99259.16
2023-03-06T07:14:14.670Z,99259.05
2023-03-06T07:16:43.513Z,99265.39
2023-03-06T07:19:12.998Z,99264.66
2023-03-06T07:21:42.163Z,99264.15
2023-03-06T07:24:10.384Z,99264.52
2023-03-06T07:26:38.439Z,99267.35
2023-03-06T07:29:06.996Z,99269.33
2023-03-06T07:31:35.134Z,99275.10
2023-03-06T07:34:04.997Z,99273.95
2023-03-06T07:36:34.456Z,99272.23
2023-03-06T07:39:03.188Z,99272.46
2023-03-06T07:41:31.875Z,99273.73
2023-03-06T07:44:00.163Z,99274.98
2023-03-06T07:46:28.461Z,99273.77
2023-03-06T07:48:56.650Z,99274.30
2023-03-06T07:51:24.702Z,99279.16
2023-03-06T07:53:52.857Z,99280.73
2023-03-06T07:56:23.310Z,99278.21
2023-03-06T07:58:51.573Z,99277.21
2023-03-06T08:01:20.885Z,99280.41
2023-03-06T08:03:50.091Z,99284.21
2023-03-06T08:06:20.686Z,99282.26
2023-03-06T08:08:51.048Z,99286.34
2023-03-06T08:11:20.639Z,99293.52
2023-03-06T08:13:52.712Z,99288.95
2023-03-06T08:16:21.855Z,99297.64
2023-03-06T08:18:53.813Z,99294.73
2023-03-06T08:21:23.967Z,99295.71
2023-03-06T08:23:54.079Z,99295.04
2023-03-06T08:26:24.436Z,99298.23
2023-03-06T08:28:53.390Z,99299.42
2023-03-06T08:31:32.178Z,99305.36
2023-03-06T08:34:03.376Z,99307.77
2023-03-06T08:36:37.053Z,99310.31
2023-03-06T08:39:05.642Z,99309.63
2023-03-06T08:41:34.036Z,99309.35
2023-03-06T08:44:02.718Z,99310.89
2023-03-06T08:46:31.399Z,99311.88
2023-03-06T08:49:01.212Z,99316.83
2023-03-06T08:51:29.837Z,99321.33
2023-03-06T08:54:01.858Z,99320.11
2023-03-06T08:56:31.943Z,99326.38
2023-03-06T08:59:01.381Z,99327.27
2023-03-06T09:01:31.310Z,99330.63
2023-03-06T09:04:25.174Z,99333.94
2023-03-06T09:06:55.467Z,99336.14
2023-03-06T09:09:26.689Z,99338.73
2023-03-06T09:11:58.598Z,99338.84
2023-03-06T09:14:29.556Z,99339.13
2023-03-06T09:17:00.580Z,99338.48
2023-03-06T09:19:28.965Z,99338.24
2023-03-06T09:21:57.930Z,99345.35
2023-03-06T09:24:29.080Z,99338.66
2023-03-06T09:26:57.607Z,99338.62
2023-03-06T09:29:25.705Z,99343.15
2023-03-06T09:31:54.610Z,99344.13
2023-03-06T09:34:22.761Z,99351.04
2023-03-06T09:36:56.711Z,99351.45
2023-03-06T09:39:26.255Z,99352.05
2023-03-06T09:41:55.048Z,99356.63
2023-03-06T09:44:24.033Z,99357.40
2023-03-06T09:47:08.064Z,99359.83
2023-03-06T09:54:34.626Z,99365.83
2023-03-06T09:57:04.518Z,99366.67
2023-03-06T09:59:32.905Z,99365.64
2023-03-06T10:02:12.548Z,99365.91
2023-03-06T10:04:42.053Z,99369.08
2023-03-06T10:07:19.248Z,99363.95
2023-03-06T10:10:04.492Z,99360.77
2023-03-06T10:12:37.538Z,99359.87
2023-03-06T10:15:15.461Z,99357.66
2023-03-06T10:17:49.850Z,99358.48
2023-03-06T10:20:20.259Z,99361.91
2023-03-06T10:23:13.530Z,99355.35
2023-03-06T10:25:45.606Z,99359.48
2023-03-06T10:28:18.712Z,99358.83
2023-03-06T10:31:10.500Z,99355.56
2023-03-06T10:33:44.048Z,99348.98
2023-03-06T10:36:15.901Z,99339.36
2023-03-06T10:38:45.400Z,99339.64
2023-03-06T10:41:13.445Z,99340.63
2023-03-06T10:43:44.201Z,99342.79
2023-03-06T10:46:13.485Z,99339.27
2023-03-06T10:48:44.414Z,99339.64
2023-03-06T10:51:20.056Z,99336.07
2023-03-06T10:53:50.331Z,99335.70
2023-03-06T10:56:28.809Z,99331.86
2023-03-06T10:59:28.267Z,99336.03
2023-03-06T11:02:02.846Z,99337.23
2023-03-06T11:04:34.724Z,99339.83
2023-03-06T11:07:13.830Z,99337.09
2023-03-06T11:09:56.906Z,99338.39
2023-03-06T11:12:28.666Z,99339.29
2023-03-06T11:15:15.033Z,99340.55
2023-03-06T11:18:04.465Z,99342.95
2023-03-06T11:20:52.484Z,99336.20
2023-03-06T11:23:38.410Z,99341.42
2023-03-06T11:26:09.242Z,99343.73
2023-03-06T11:28:40.851Z,99337.35
2023-03-06T11:31:14.358Z,99343.36
2023-03-06T11:33:46.872Z,99338.50
2023-03-06T11:36:23.806Z,99342.73
2023-03-06T11:38:52.999Z,99339.34
2023-03-06T11:42:14.942Z,99340.06
2023-03-06T11:44:52.051Z,99343.80
2023-03-06T11:47:25.936Z,99346.73
2023-03-06T11:50:12.760Z,99348.05
2023-03-06T11:52:53.656Z,99349.42
2023-03-06T11:55:47.519Z,99347.29
2023-03-06T11:58:25.921Z,99352.43
2023-03-06T12:01:01.519Z,99352.52
2023-03-06T12:03:52.228Z,99352.17
2023-03-06T12:06:23.462Z,99352.13
2023-03-06T12:09:25.335Z,99357.39
2023-03-06T12:12:19.236Z,99361.19
2023-03-06T12:14:52.956Z,99366.16
2023-03-06T12:18:04.115Z,99367.93
2023-03-06T12:20:54.135Z,99368.77
2023-03-06T12:23:33.392Z,99369.62
2023-03-06T12:26:08.084Z,99370.56
2023-03-06T12:29:01.143Z,99364.80
2023-03-06T12:32:05.256Z,99370.09
2023-03-06T12:34:52.345Z,99368.30
2023-03-06T12:37:42.694Z,99364.02
2023-03-06T12:40:24.169Z,99369.71
2023-03-06T12:43:30.766Z,99373.33
2023-03-06T12:46:02.707Z,99374.27
2023-03-06T12:48:34.168Z,99372.40
2023-03-06T12:51:03.447Z,99373.46
2023-03-06T12:53:32.134Z,99375.79
2023-03-06T12:56:02.005Z,99377.32
2023-03-06T12:58:30.267Z,99378.30
2023-03-06T13:01:17.285Z,99374.66
2023-03-06T13:04:13.079Z,99375.89
2023-03-06T13:07:05.525Z,99370.98
2023-03-06T13:09:40.420Z,99371.27
2023-03-06T13:12:12.505Z,99373.55
2023-03-06T13:14:54.086Z,99373.42
2023-03-06T13:17:23.294Z,99373.30
2023-03-06T13:20:13.109Z,99371.96
2023-03-06T13:22:42.396Z,99371.06
2023-03-06T13:25:13.208Z,99366.55
2023-03-06T13:27:44.678Z,99368.85
2023-03-06T13:30:28.553Z,99368.74
2023-03-06T13:32:57.730Z,99375.70
2023-03-06T13:35:35.913Z,99371.52
2023-03-06T13:38:04.313Z,99380.78
2023-03-06T13:40:36.332Z,99384.05
2023-03-06T13:43:18.262Z,99383.49
2023-03-06T13:45:46.992Z,99383.23
2023-03-06T13:48:43.804Z,99387.88
2023-03-06T13:51:36.743Z,99387.80
2023-03-06T13:54:11.390Z,99392.98
2023-03-06T13:57:08.784Z,99395.94
2023-03-06T14:00:19.193Z,99397.77
2023-03-06T14:03:18.805Z,99404.98
2023-03-06T14:05:48.389Z,99401.16
2023-03-06T14:08:23.142Z,99406.00
2023-03-06T14:11:20.413Z,99407.02
2023-03-06T14:13:54.014Z,99409.38
2023-03-06T14:16:27.853Z,99415.70
2023-03-06T14:18:59.451Z,99415.30
2023-03-06T14:21:39.773Z,99417.31
2023-03-06T14:24:17.103Z,99416.95
2023-03-06T14:26:47.694Z,99421.92
2023-03-06T14:29:26.321Z,99423.48
2023-03-06T14:31:58.846Z,99430.31
2023-03-06T14:34:31.371Z,99430.55
2023-03-06T14:37:05.625Z,99430.67
2023-03-06T14:39:40.464Z,99431.49
2023-03-06T14:42:14.935Z,99425.97
2023-03-06T14:44:42.881Z,99423.77
2023-03-06T14:47:30.419Z,99430.17
2023-03-06T14:50:18.513Z,99436.02
2023-03-06T14:52:46.544Z,99433.52
2023-03-06T14:55:25.553Z,99435.77
2023-03-06T14:57:59.389Z,99442.31
2023-03-06T15:00:33.207Z,99442.92
2023-03-06T15:03:01.447Z,99445.54
2023-03-06T15:05:29.615Z,99444.80
2023-03-06T15:08:05.031Z,99445.73
2023-03-06T15:10:34.884Z,99450.15
2023-03-06T15:13:09.172Z,99453.55
2023-03-06T15:15:37.549Z,99454.16
2023-03-06T15:18:39.146Z,99454.94
2023-03-06T15:21:18.616Z,99457.42
2023-03-06T15:23:47.994Z,99456.70
2023-03-06T15:26:31.301Z,99456.54
2023-03-06T15:29:10.295Z,99457.61
2023-03-06T15:31:42.329Z,99463.11
2023-03-06T15:34:10.817Z,99463.41
2023-03-06T15:36:40.302Z,99468.92
2023-03-06T15:39:28.669Z,99472.02
2023-03-06T15:42:00.012Z,99472.71
2023-03-06T15:44:30.525Z,99474.76
2023-03-06T15:47:08.448Z,99475.14
2023-03-06T15:49:39.077Z,99471.90
2023-03-06T15:52:07.464Z,99475.16
2023-03-06T15:54:35.734Z,99477.18
2023-03-06T15:57:05.164Z,99474.70
2023-03-06T15:59:33.290Z,99475.90
2023-03-06T16:02:14.014Z,99474.52
2023-03-06T16:04:43.485Z,99477.08
2023-03-06T16:07:12.272Z,99483.39
2023-03-06T16:09:43.029Z,99487.16
2023-03-06T16:12:17.609Z,99487.92
2023-03-06T16:14:47.897Z,99491.52
2023-03-06T16:17:16.605Z,99499.42
2023-03-06T16:19:45.646Z,99506.09
2023-03-06T16:22:14.443Z,99504.98
2023-03-06T16:24:43.503Z,99507.73
2023-03-06T16:27:18.630Z,99510.67
2023-03-06T16:29:49.482Z,99514.15
2023-03-06T16:32:17.713Z,99518.03
2023-03-06T16:34:46.436Z,99522.90
2023-03-06T16:37:16.497Z,99523.27
2023-03-06T16:39:44.474Z,99524.41
2023-03-06T16:42:13.242Z,99524.65
2023-03-06T16:44:41.700Z,99525.31
2023-03-06T16:47:13.163Z,99529.36
2023-03-06T16:49:41.352Z,99526.77
2023-03-06T16:52:11.080Z,99529.13
2023-03-06T16:54:44.740Z,99533.70
2023-03-06T16:57:14.418Z,99531.83
2023-03-06T16:59:42.375Z,99533.69
2023-03-06T17:02:11.099Z,99535.86
2023-03-06T17:04:39.296Z,99535.29
2023-03-06T17:07:08.049Z,99537.39
2023-03-06T17:09:37.347Z,99539.16
2023-03-06T17:12:05.635Z,99537.66
2023-03-06T17:14:34.214Z,99538.76
2023-03-06T17:17:02.480Z,99541.35
2023-03-06T17:19:35.005Z,99541.39
2023-03-06T17:22:04.047Z,99542.48
2023-03-06T17:24:32.247Z,99539.17
2023-03-06T17:27:00.829Z,99539.58
2023-03-06T17:29:29.212Z,99539.95
2023-03-06T17:31:57.183Z,99541.86
2023-03-06T17:34:25.390Z,99536.67
2023-03-06T17:36:53.424Z,99536.92
2023-03-06T17:39:22.744Z,99539.08
2023-03-06T17:41:50.834Z,99531.21
2023-03-06T17:44:20.320Z,99532.71
2023-03-06T17:46:48.524Z,99529.52
2023-03-06T17:49:19.611Z,99534.64
2023-03-06T17:51:47.736Z,99536.60
2023-03-06T17:54:16.056Z,99534.13
2023-03-06T17:56:46.980Z,99536.45
2023-03-06T17:59:15.382Z,99537.35
2023-03-06T18:01:45.237Z,99538.66
2023-03-06T18:04:14.796Z,99532.98
2023-03-06T18:06:42.938Z,99533.80
2023-03-06T18:09:11.826Z,99533.23
2023-03-06T18:11:41.452Z,99533.93
2023-03-06T18:14:09.947Z,99533.33
2023-03-06T18:16:53.421Z,99537.35
2023-03-06T18:19:21.841Z,99539.28
2023-03-06T18:21:49.936Z,99538.10
2023-03-06T18:24:17.933Z,99541.30
2023-03-06T18:26:46.081Z,99537.77
2023-03-06T18:29:14.558Z,99540.48
2023-03-06T18:31:42.824Z,99540.73
2023-03-06T18:34:13.548Z,99543.23
2023-03-06T18:36:47.255Z,99541.91
2023-03-06T18:39:15.951Z,99542.70
2023-03-06T18:41:47.585Z,99544.48
2023-03-06T18:44:17.547Z,99551.73
2023-03-06T18:46:45.847Z,99550.30
2023-03-06T18:49:17.962Z,99551.92
2023-03-06T18:51:51.213Z,99551.11
2023-03-06T18:54:19.803Z,99552.50
2023-03-06T18:56:47.798Z,99556.45
2023-03-06T18:59:35.612Z,99560.06
2023-03-06T19:02:04.130Z,99556.09
2023-03-06T19:04:32.251Z,99555.73
2023-03-06T19:07:00.547Z,99557.61
2023-03-06T19:09:28.518Z,99559.38
2023-03-06T19:12:00.678Z,99557.95
2023-03-06T19:14:30.299Z,99561.56
2023-03-06T19:16:58.284Z,99558.75
2023-03-06T19:19:29.373Z,99565.69
2023-03-06T19:21:58.031Z,99562.05
2023-03-06T19:24:35.152Z,99568.77
2023-03-06T19:27:03.393Z,99568.89
2023-03-06T19:29:32.682Z,99569.59
2023-03-06T19:32:01.461Z,99569.07
2023-03-06T19:34:29.859Z,99568.35
2023-03-06T19:36:57.866Z,99564.23
2023-03-06T19:39:26.287Z,99562.06
2023-03-06T19:41:54.408Z,99558.51
2023-03-06T19:44:23.471Z,99558.31
2023-03-06T19:46:51.527Z,99553.27
2023-03-06T19:49:22.345Z,99554.63
2023-03-06T19:51:50.668Z,99552.40
2023-03-06T19:59:05.694Z,99552.20
2023-03-06T20:01:34.787Z,99550.27
2023-03-06T20:04:03.581Z,99549.41
2023-03-06T20:06:33.727Z,99549.45
2023-03-06T20:09:05.710Z,99549.98
2023-03-06T20:11:35.024Z,99543.22
2023-03-06T20:14:03.751Z,99543.33
2023-03-06T20:16:32.886Z,99543.52
2023-03-06T20:19:01.287Z,99544.99
2023-03-06T20:21:32.019Z,99547.22
2023-03-06T20:24:00.097Z,99542.70
2023-03-06T20:26:28.671Z,99537.08
2023-03-06T20:28:58.165Z,99539.75
2023-03-06T20:31:31.880Z,99532.60
2023-03-06T20:34:00.177Z,99532.23
2023-03-06T20:36:30.123Z,99533.59
2023-03-06T20:39:00.636Z,99532.23
2023-03-06T20:41:29.601Z,99533.38
2023-03-06T20:43:59.547Z,99532.23
2023-03-06T20:46:27.950Z,99531.84
2023-03-06T20:48:58.136Z,99530.05
2023-03-06T20:51:31.625Z,99530.36
2023-03-06T20:54:00.817Z,99533.72
2023-03-06T20:56:31.247Z,99530.97
2023-03-06T20:58:59.601Z,99535.60
2023-03-06T21:10:54.574Z,99532.36
2023-03-06T21:13:25.500Z,99526.56
2023-03-06T21:15:53.547Z,99525.55
2023-03-06T21:18:22.077Z,99522.27
2023-03-06T21:20:50.520Z,99518.92
2023-03-06T21:23:19.670Z,99514.42
2023-03-06T21:25:49.483Z,99513.02
2023-03-06T21:28:17.747Z,99509.71
2023-03-06T21:30:45.883Z,99511.10
2023-03-06T21:33:17.623Z,99509.41
2023-03-06T21:35:46.088Z,99512.06
2023-03-06T21:38:14.463Z,99508.91
2023-03-06T21:40:44.754Z,99511.23
2023-03-06T21:43:13.075Z,99508.91
2023-03-06T21:45:46.192Z,99513.38
2023-03-06T21:48:15.507Z,99514.11
2023-03-06T21:50:43.661Z,99515.18
2023-03-06T21:53:11.678Z,99513.40
2023-03-06T21:55:40.809Z,99514.84
2023-03-06T21:58:09.053Z,99516.63
2023-03-06T22:00:37.340Z,99512.66
2023-03-06T22:03:06.704Z,99510.70
2023-03-06T22:05:34.767Z,99510.39
2023-03-06T22:08:02.802Z,99511.33
2023-03-06T22:15:22.827Z,99513.22
2023-03-06T22:18:47.597Z,99511.42
2023-03-06T22:21:16.898Z,99508.95
2023-03-06T22:23:58.234Z,99508.79
2023-03-06T22:26:27.645Z,99505.49
2023-03-06T22:28:58.115Z,99509.82
2023-03-06T22:31:29.358Z,99505.48
2023-03-06T22:34:01.769Z,99505.98
2023-03-06T22:36:32.918Z,99506.55
2023-03-06T22:39:02.332Z,99506.70
2023-03-06T22:41:30.706Z,99507.40
2023-03-06T22:43:59.769Z,99511.04
2023-03-06T22:46:28.152Z,99510.11
2023-03-06T22:48:57.237Z,99508.02
2023-03-06T22:51:27.049Z,99508.05
2023-03-06T22:53:57.008Z,99503.48
2023-03-06T22:56:25.853Z,99503.56
2023-03-06T22:58:54.019Z,99499.68
2023-03-06T23:01:25.175Z,99501.86
2023-03-06T23:03:54.767Z,99504.70
2023-03-06T23:06:25.289Z,99503.66
2023-03-06T23:09:03.969Z,99505.70
2023-03-06T23:11:32.654Z,99506.36
2023-03-06T23:14:20.987Z,99498.76
2023-03-06T23:17:09.458Z,99496.08
2023-03-06T23:19:56.639Z,99491.17
2023-03-06T23:22:44.283Z,99491.52
2023-03-06T23:25:31.720Z,99490.57
2023-03-06T23:27:59.821Z,99489.39
2023-03-06T23:30:28.066Z,99486.88
2023-03-06T23:32:56.360Z,99484.73
2023-03-06T23:35:24.559Z,99483.11
2023-03-06T23:37:52.516Z,99481.56
2023-03-06T23:40:21.222Z,99480.33
2023-03-06T23:42:49.761Z,99475.05
2023-03-06T23:45:17.852Z,99474.98
2023-03-06T23:47:47.332Z,99476.46
2023-03-06T23:50:16.042Z,99471.84
2023-03-06T23:52:44.254Z,99468.70
2023-03-06T23:55:12.659Z,99469.22
2023-03-06T23:57:40.962Z,99465.84
